NZWN/WLG METAR and TAF weather

Enter ICAO airport designator
Station Type Date Time Source
NZWN METAR 2019/05/25 08:30 UTC NOAA

NZWN 250830Z AUTO 35020G30KT 9999 NCD 14/08 Q1019 NOSIG


Station Type Date Time Source
NZWN Decoded METAR 2019/05/25 08:30 UTC NOAA

Wellington Airport, New Zealand (NZWN) 41-20S 174-48E 8M
May 25, 2019 - 04:30 AM EDT / 2019.05.25 0830 UTC
Wind: from the N (350 degrees) at 23 MPH (20 KT) gusting to 35 MPH (30 KT):0
Visibility: greater than 7 mile(s):0
Temperature: 57 F (14 C)
Dew Point: 46 F (8 C)
Relative Humidity: 67%
Pressure (altimeter): 30.09 in. Hg (1019 hPa)
ob: NZWN 250830Z AUTO 35020G30KT 9999 NCD 14/08 Q1019 NOSIG
cycle: 8

Station Type Date Time Source
NZWN TAF 2019/05/25 06:13 UTC NOAA

TAF NZWN 250510Z 2506/2606 36020G30KT 9999 FEW025

Example: see airport list